M I D A S
Marine Information and Data Acquisition System
Tripno 2204 of the Zeeleeuw from 2011-10-24 11:38:50 to 2011-10-24 13:53:11
Back to CruiseResearch ActivitiesStationsMapUnderway DataData graphs

EquipmentUnitsComment
TimeDGPSUTC
LatitudeDGPSDM.mWGS84
LongitudeDGPSDM.mWGS84
HeadingGyrodeg 
SOGDGPSknotsSpeed over ground
COGDGPSdegCourse over ground
DepthEcho soundermeters200 kHz
Missing or incorrect values are displayed as -999
Navigation data collected by the RV Zeeleeuw from 2011-10-24 07:16:37 to 2011-10-24 14:01:22
                                                                                    Next 1000 lines
Time Latitude Longitude Heading SOG COG Depth
2011-10-24 07:16:47 51°13.633 2°56.017 123.7 0.1 207 -999
2011-10-24 07:16:52 51°13.633 2°56.017 123.7 0.1 209 -999
2011-10-24 07:16:57 51°13.633 2°56.017 123.7 -999 208 -999
2011-10-24 07:17:02 51°13.633 2°56.017 123.8 -999 232 -999
2011-10-24 07:17:07 51°13.633 2°56.017 123.8 -999 19 -999
2011-10-24 07:17:12 51°13.632 2°56.017 123.8 -999 148 -999
2011-10-24 07:17:18 51°13.632 2°56.017 123.9 -999 25 -999
2011-10-24 07:17:22 51°13.632 2°56.017 123.9 -999 25 -999
2011-10-24 07:17:27 51°13.632 2°56.017 123.9 -999 36 -999
2011-10-24 07:17:33 51°13.632 2°56.017 124 -999 356 -999
2011-10-24 07:17:38 51°13.632 2°56.017 124 -999 234 -999
2011-10-24 07:17:43 51°13.632 2°56.017 124.1 -999 217 -999
2011-10-24 07:17:47 51°13.632 2°56.017 124.1 -999 20 -999
2011-10-24 07:17:52 51°13.632 2°56.017 124.1 -999 22 -999
2011-10-24 07:17:57 51°13.632 2°56.017 124.1 -999 41 -999
2011-10-24 07:18:02 51°13.632 2°56.017 124.1 0.1 29 -999
2011-10-24 07:18:07 51°13.632 2°56.017 124 -999 224 -999
2011-10-24 07:18:12 51°13.632 2°56.017 123.9 0.1 215 -999
2011-10-24 07:18:17 51°13.632 2°56.017 123.9 -999 213 -999
2011-10-24 07:18:23 51°13.632 2°56.017 123.9 -999 248 -999
2011-10-24 07:18:27 51°13.632 2°56.017 123.8 -999 186 -999
2011-10-24 07:18:32 51°13.632 2°56.017 123.8 -999 200 -999
2011-10-24 07:18:37 51°13.632 2°56.017 123.8 -999 34 -999
2011-10-24 07:18:42 51°13.632 2°56.017 123.8 0.1 27 -999
2011-10-24 07:18:47 51°13.632 2°56.017 123.9 0.1 33 -999
2011-10-24 07:18:52 51°13.632 2°56.017 123.9 -999 13 -999
2011-10-24 07:18:57 51°13.632 2°56.017 123.9 -999 203 -999
2011-10-24 07:19:02 51°13.632 2°56.017 123.9 -999 207 -999
2011-10-24 07:19:07 51°13.632 2°56.017 123.9 -999 218 -999
2011-10-24 07:19:12 51°13.632 2°56.017 123.9 -999 39 -999
2011-10-24 07:19:17 51°13.633 2°56.017 123.8 0.1 22 -999
2011-10-24 07:19:22 51°13.632 2°56.017 123.8 -999 220 -999
2011-10-24 07:19:27 51°13.632 2°56.017 123.8 -999 198 -999
2011-10-24 07:19:32 51°13.633 2°56.017 123.8 -999 45 -999
2011-10-24 07:19:37 51°13.633 2°56.017 123.8 -999 65 -999
2011-10-24 07:19:42 51°13.633 2°56.017 123.8 0.1 22 -999
2011-10-24 07:19:47 51°13.632 2°56.017 123.8 -999 222 -999
2011-10-24 07:19:52 51°13.632 2°56.017 123.8 0.1 213 -999
2011-10-24 07:19:57 51°13.632 2°56.017 123.8 -999 180 -999
2011-10-24 07:20:02 51°13.632 2°56.017 123.8 -999 30 -999
2011-10-24 07:20:07 51°13.632 2°56.017 123.8 -999 208 -999
2011-10-24 07:20:12 51°13.632 2°56.017 123.8 -999 53 -999
2011-10-24 07:20:17 51°13.632 2°56.017 123.8 -999 32 -999
2011-10-24 07:20:23 51°13.633 2°56.017 123.9 0.1 24 -999
2011-10-24 07:20:28 51°13.632 2°56.017 124 -999 12 -999
2011-10-24 07:20:33 51°13.632 2°56.017 124 -999 187 -999
2011-10-24 07:20:38 51°13.632 2°56.017 124.2 -999 61 -999
2011-10-24 07:20:43 51°13.632 2°56.017 124.2 -999 19 -999
2011-10-24 07:20:47 51°13.632 2°56.017 124.2 -999 209 -999
2011-10-24 07:20:52 51°13.632 2°56.017 124.2 -999 43 -999
2011-10-24 07:20:57 51°13.632 2°56.017 124.2 0.1 12 -999
2011-10-24 07:21:02 51°13.632 2°56.017 124.1 0.1 15 -999
2011-10-24 07:21:07 51°13.632 2°56.017 124 -999 16 -999
2011-10-24 07:21:12 51°13.632 2°56.017 123.9 -999 312 -999
2011-10-24 07:21:17 51°13.632 2°56.017 123.8 -999 270 -999
2011-10-24 07:21:22 51°13.632 2°56.017 123.8 -999 29 -999
2011-10-24 07:21:27 51°13.632 2°56.017 123.8 -999 49 -999
2011-10-24 07:21:32 51°13.632 2°56.018 123.8 -999 51 -999
2011-10-24 07:21:37 51°13.632 2°56.017 123.8 -999 221 -999
2011-10-24 07:21:42 51°13.632 2°56.017 123.7 -999 11 -999
2011-10-24 07:21:47 51°13.632 2°56.017 123.6 -999 287 -999
2011-10-24 07:21:52 51°13.632 2°56.017 123.6 -999 245 -999
2011-10-24 07:21:57 51°13.632 2°56.017 123.5 -999 224 -999
2011-10-24 07:22:02 51°13.632 2°56.017 123.5 -999 25 -999
2011-10-24 07:22:07 51°13.632 2°56.017 123.5 -999 220 -999
2011-10-24 07:22:12 51°13.632 2°56.017 123.5 -999 20 -999
2011-10-24 07:22:17 51°13.632 2°56.017 123.5 -999 216 -999
2011-10-24 07:22:22 51°13.632 2°56.017 123.5 -999 204 -999
2011-10-24 07:22:27 51°13.632 2°56.017 123.5 -999 8 -999
2011-10-24 07:22:32 51°13.633 2°56.017 123.5 -999 22 -999
2011-10-24 07:22:37 51°13.633 2°56.017 123.5 -999 21 -999
2011-10-24 07:22:42 51°13.633 2°56.017 123.5 -999 212 -999
2011-10-24 07:22:47 51°13.633 2°56.017 123.5 -999 210 -999
2011-10-24 07:22:52 51°13.633 2°56.017 123.5 -999 206 -999
2011-10-24 07:22:57 51°13.633 2°56.017 123.5 -999 55 -999
2011-10-24 07:23:02 51°13.633 2°56.016 123.6 -999 206 -999
2011-10-24 07:23:07 51°13.633 2°56.016 123.7 -999 62 -999
2011-10-24 07:23:12 51°13.633 2°56.017 123.7 0.1 32 -999
2011-10-24 07:23:18 51°13.633 2°56.016 123.7 0.1 20 -999
2011-10-24 07:23:22 51°13.633 2°56.016 123.7 -999 26 -999
2011-10-24 07:23:27 51°13.633 2°56.016 123.7 -999 42 -999
2011-10-24 07:23:32 51°13.633 2°56.016 123.7 -999 201 -999
2011-10-24 07:23:37 51°13.633 2°56.016 123.8 -999 12 -999
2011-10-24 07:23:43 51°13.633 2°56.016 123.8 -999 207 -999
2011-10-24 07:23:47 51°13.633 2°56.016 123.9 -999 36 -999
2011-10-24 07:23:52 51°13.634 2°56.016 123.9 -999 36 -999
2011-10-24 07:23:57 51°13.634 2°56.016 124 -999 31 -999
2011-10-24 07:24:02 51°13.634 2°56.016 124.1 -999 46 -999
2011-10-24 07:24:07 51°13.634 2°56.016 124.2 -999 201 -999
2011-10-24 07:24:12 51°13.634 2°56.016 124.2 -999 269 -999
2011-10-24 07:24:17 51°13.634 2°56.016 124.2 -999 21 -999
2011-10-24 07:24:22 51°13.634 2°56.016 124.2 -999 198 -999
2011-10-24 07:24:28 51°13.634 2°56.016 124.2 -999 184 -999
2011-10-24 07:24:33 51°13.634 2°56.016 124.2 -999 138 -999
2011-10-24 07:24:37 51°13.634 2°56.016 124.2 -999 27 -999
2011-10-24 07:24:42 51°13.635 2°56.016 124.2 -999 26 -999
2011-10-24 07:24:48 51°13.635 2°56.016 124.2 -999 28 -999
2011-10-24 07:24:52 51°13.635 2°56.016 124.2 -999 5 -999
2011-10-24 07:24:57 51°13.635 2°56.016 124.2 -999 232 -999
2011-10-24 07:25:02 51°13.635 2°56.016 124.2 0.1 220 -999
2011-10-24 07:25:08 51°13.635 2°56.016 124.2 -999 213 -999
2011-10-24 07:25:13 51°13.635 2°56.016 124.2 -999 263 -999
2011-10-24 07:25:18 51°13.635 2°56.016 124.2 -999 221 -999
2011-10-24 07:25:22 51°13.635 2°56.016 124.1 -999 26 -999
2011-10-24 07:25:28 51°13.635 2°56.016 124.1 -999 8 -999
2011-10-24 07:25:32 51°13.635 2°56.016 124.1 0.1 24 -999
2011-10-24 07:25:37 51°13.635 2°56.016 124 0.1 27 -999
2011-10-24 07:25:42 51°13.635 2°56.016 124 -999 201 -999
2011-10-24 07:25:47 51°13.635 2°56.016 124 -999 204 -999
2011-10-24 07:25:52 51°13.634 2°56.016 124 0.1 22 -999
2011-10-24 07:25:57 51°13.634 2°56.017 123.9 -999 40 -999
2011-10-24 07:26:02 51°13.634 2°56.017 123.9 -999 251 -999
2011-10-24 07:26:07 51°13.633 2°56.017 123.9 -999 13 -999
2011-10-24 07:26:12 51°13.633 2°56.017 123.9 0.1 25 -999
2011-10-24 07:26:17 51°13.633 2°56.018 123.9 -999 27 -999
2011-10-24 07:26:23 51°13.632 2°56.018 123.9 -999 253 -999
2011-10-24 07:26:28 51°13.632 2°56.018 123.8 -999 283 -999
2011-10-24 07:26:33 51°13.632 2°56.018 123.8 -999 5 -999
2011-10-24 07:26:37 51°13.632 2°56.018 123.8 -999 19 -999
2011-10-24 07:26:42 51°13.632 2°56.019 123.8 -999 32 -999
2011-10-24 07:26:47 51°13.632 2°56.019 123.8 -999 218 -999
2011-10-24 07:26:52 51°13.632 2°56.019 123.8 -999 44 -999
2011-10-24 07:26:57 51°13.632 2°56.019 123.8 0.1 22 -999
2011-10-24 07:27:02 51°13.632 2°56.019 123.8 -999 20 -999
2011-10-24 07:27:07 51°13.632 2°56.019 123.8 -999 199 -999
2011-10-24 07:27:12 51°13.632 2°56.02 123.8 -999 32 -999
2011-10-24 07:27:17 51°13.632 2°56.02 123.8 -999 20 -999
2011-10-24 07:27:22 51°13.632 2°56.02 123.8 -999 34 -999
2011-10-24 07:27:27 51°13.632 2°56.02 123.8 -999 54 -999
2011-10-24 07:27:32 51°13.632 2°56.02 123.8 -999 80 -999
2011-10-24 07:27:37 51°13.632 2°56.02 123.8 -999 24 -999
2011-10-24 07:27:43 51°13.632 2°56.02 123.8 -999 356 -999
2011-10-24 07:27:47 51°13.632 2°56.02 123.8 -999 198 -999
2011-10-24 07:27:52 51°13.632 2°56.02 123.8 -999 205 -999
2011-10-24 07:27:57 51°13.632 2°56.02 123.8 -999 356 -999
2011-10-24 07:28:02 51°13.632 2°56.02 123.8 -999 245 -999
2011-10-24 07:28:07 51°13.632 2°56.02 123.8 -999 236 -999
2011-10-24 07:28:12 51°13.632 2°56.02 123.8 -999 283 -999
2011-10-24 07:28:17 51°13.632 2°56.019 123.8 -999 209 -999
2011-10-24 07:28:22 51°13.632 2°56.019 123.8 -999 221 -999
2011-10-24 07:28:27 51°13.632 2°56.019 123.8 -999 21 -999
2011-10-24 07:28:33 51°13.632 2°56.019 123.8 0.1 29 -999
2011-10-24 07:28:37 51°13.632 2°56.019 123.8 -999 6 -999
2011-10-24 07:28:43 51°13.632 2°56.019 123.8 -999 237 -999
2011-10-24 07:28:47 51°13.632 2°56.019 123.8 -999 276 -999
2011-10-24 07:28:52 51°13.632 2°56.019 123.8 -999 22 -999
2011-10-24 07:28:57 51°13.632 2°56.019 123.8 -999 7 -999
2011-10-24 07:29:02 51°13.632 2°56.019 123.8 -999 280 -999
2011-10-24 07:29:07 51°13.632 2°56.018 123.8 -999 219 -999
2011-10-24 07:29:12 51°13.631 2°56.018 -999 -999 217 -999
2011-10-24 07:29:17 51°13.632 2°56.019 123.8 -999 37 -999
2011-10-24 07:29:23 51°13.632 2°56.019 123.8 -999 42 -999
2011-10-24 07:29:28 51°13.632 2°56.019 123.8 -999 29 -999
2011-10-24 07:29:32 51°13.632 2°56.019 123.8 0.1 26 -999
2011-10-24 07:29:37 51°13.632 2°56.019 123.8 -999 26 -999
2011-10-24 07:29:42 51°13.631 2°56.019 123.8 -999 219 -999
2011-10-24 07:29:47 51°13.632 2°56.019 123.9 -999 225 -999
2011-10-24 07:29:52 51°13.631 2°56.019 123.9 -999 26 -999
2011-10-24 07:29:57 51°13.631 2°56.019 123.9 0.1 206 -999
2011-10-24 07:30:02 51°13.631 2°56.019 123.9 -999 22 -999
2011-10-24 07:30:07 51°13.631 2°56.019 123.9 0.1 33 -999
2011-10-24 07:30:12 51°13.631 2°56.019 123.9 0.1 31 -999
2011-10-24 07:30:17 51°13.631 2°56.019 123.9 -999 20 -999
2011-10-24 07:30:22 51°13.631 2°56.019 123.9 -999 13 -999
2011-10-24 07:30:27 51°13.631 2°56.019 123.9 -999 32 -999
2011-10-24 07:30:32 51°13.631 2°56.019 123.9 -999 212 -999
2011-10-24 07:30:37 51°13.631 2°56.019 123.9 -999 203 -999
2011-10-24 07:30:42 51°13.631 2°56.019 123.9 -999 28 -999
2011-10-24 07:30:47 51°13.631 2°56.019 123.9 -999 349 -999
2011-10-24 07:30:52 51°13.631 2°56.02 123.9 -999 343 -999
2011-10-24 07:30:57 51°13.631 2°56.02 123.9 -999 223 8.7
2011-10-24 07:31:02 51°13.63 2°56.02 123.9 0.1 206 -999
2011-10-24 07:31:07 51°13.63 2°56.02 123.9 -999 206 -999
2011-10-24 07:31:12 51°13.631 2°56.02 123.9 -999 88 -999
2011-10-24 07:31:17 51°13.631 2°56.02 123.9 -999 39 -999
2011-10-24 07:31:22 51°13.631 2°56.02 123.9 -999 43 -999
2011-10-24 07:31:27 51°13.631 2°56.02 123.9 -999 193 -999
2011-10-24 07:31:32 51°13.631 2°56.02 123.9 -999 220 -999
2011-10-24 07:31:37 51°13.631 2°56.02 123.9 -999 209 -999
2011-10-24 07:31:42 51°13.631 2°56.02 124 0.1 209 -999
2011-10-24 07:31:47 51°13.631 2°56.02 124 -999 204 -999
2011-10-24 07:31:52 51°13.631 2°56.021 124 -999 38 -999
2011-10-24 07:31:58 51°13.631 2°56.021 124 -999 39 -999
2011-10-24 07:32:02 51°13.631 2°56.021 124.1 -999 325 -999
2011-10-24 07:32:08 51°13.631 2°56.021 124.1 0.1 215 -999
2011-10-24 07:32:12 51°13.631 2°56.021 124.1 -999 190 -999
2011-10-24 07:32:17 51°13.632 2°56.021 124.1 -999 222 -999
2011-10-24 07:32:23 51°13.631 2°56.021 124.1 0.1 222 -999
2011-10-24 07:32:27 51°13.631 2°56.021 124 -999 231 -999
2011-10-24 07:32:32 51°13.631 2°56.021 123.9 -999 190 -999
2011-10-24 07:32:37 51°13.631 2°56.021 123.9 -999 218 -999
2011-10-24 07:32:42 51°13.631 2°56.021 123.9 -999 12 -999
2011-10-24 07:32:47 51°13.631 2°56.021 123.9 -999 132 -999
2011-10-24 07:32:52 51°13.631 2°56.021 123.9 -999 270 -999
2011-10-24 07:32:57 51°13.631 2°56.021 123.9 -999 223 -999
2011-10-24 07:33:02 51°13.631 2°56.021 123.9 -999 243 8.7
2011-10-24 07:33:06 51°13.631 2°56.02 123.9 -999 204 -999
2011-10-24 07:33:12 51°13.631 2°56.02 123.9 -999 197 -999
2011-10-24 07:33:17 51°13.631 2°56.02 123.9 -999 65 -999
2011-10-24 07:33:23 51°13.631 2°56.021 123.9 -999 73 -999
2011-10-24 07:33:28 51°13.631 2°56.02 123.9 -999 164 -999
2011-10-24 07:33:32 51°13.631 2°56.02 124.1 -999 94 -999
2011-10-24 07:33:37 51°13.631 2°56.02 124.2 -999 128 -999
2011-10-24 07:33:42 51°13.631 2°56.02 124.3 -999 103 -999
2011-10-24 07:33:47 51°13.631 2°56.02 124.5 -999 19 -999
2011-10-24 07:33:52 51°13.631 2°56.02 124.6 0.1 208 -999
2011-10-24 07:33:57 51°13.631 2°56.02 124.6 -999 205 -999
2011-10-24 07:34:02 51°13.631 2°56.02 124.6 -999 259 -999
2011-10-24 07:34:07 51°13.631 2°56.02 124.6 -999 33 -999
2011-10-24 07:34:12 51°13.631 2°56.02 124.6 0.1 17 -999
2011-10-24 07:34:18 51°13.631 2°56.02 124.4 0.1 20 -999
2011-10-24 07:34:23 51°13.631 2°56.02 124.2 -999 358 -999
2011-10-24 07:34:27 51°13.631 2°56.02 124.1 -999 29 -999
2011-10-24 07:34:33 51°13.631 2°56.02 124 -999 18 -999
2011-10-24 07:34:38 51°13.631 2°56.02 123.9 -999 218 -999
2011-10-24 07:34:43 51°13.631 2°56.02 123.9 -999 142 8.8
2011-10-24 07:34:48 51°13.631 2°56.02 123.9 -999 186 -999
2011-10-24 07:34:52 51°13.631 2°56.02 123.9 -999 91 -999
2011-10-24 07:34:57 51°13.631 2°56.02 124.1 -999 49 -999
2011-10-24 07:35:02 51°13.631 2°56.02 124.2 -999 98 -999
2011-10-24 07:35:07 51°13.631 2°56.02 124.2 -999 88 -999
2011-10-24 07:35:13 51°13.631 2°56.02 124.4 -999 301 -999
2011-10-24 07:35:17 51°13.631 2°56.02 124.5 -999 32 -999
2011-10-24 07:35:22 51°13.632 2°56.02 124.4 -999 28 -999
2011-10-24 07:35:27 51°13.632 2°56.02 124.1 -999 19 -999
2011-10-24 07:35:32 51°13.631 2°56.02 123.9 -999 8 -999
2011-10-24 07:35:38 51°13.632 2°56.02 123.9 -999 11 -999
2011-10-24 07:35:43 51°13.632 2°56.02 123.9 -999 23 -999
2011-10-24 07:35:47 51°13.632 2°56.02 123.9 -999 264 -999
2011-10-24 07:35:52 51°13.632 2°56.02 123.9 -999 222 -999
2011-10-24 07:35:58 51°13.632 2°56.02 123.9 -999 202 -999
2011-10-24 07:36:03 51°13.632 2°56.02 123.9 -999 36 -999
2011-10-24 07:36:07 51°13.632 2°56.02 123.9 -999 248 -999
2011-10-24 07:36:12 51°13.632 2°56.02 123.9 -999 57 -999
2011-10-24 07:36:17 51°13.632 2°56.02 123.9 -999 208 -999
2011-10-24 07:36:23 51°13.632 2°56.02 123.9 -999 221 -999
2011-10-24 07:36:27 51°13.632 2°56.02 123.9 -999 203 9
2011-10-24 07:36:32 51°13.632 2°56.019 123.9 -999 200 -999
2011-10-24 07:36:37 51°13.632 2°56.02 123.9 -999 37 -999
2011-10-24 07:36:42 51°13.633 2°56.02 123.9 -999 37 -999
2011-10-24 07:36:47 51°13.633 2°56.02 123.9 -999 19 -999
2011-10-24 07:36:52 51°13.633 2°56.021 123.9 -999 13 -999
2011-10-24 07:36:57 51°13.633 2°56.02 123.9 0.1 210 -999
2011-10-24 07:37:02 51°13.633 2°56.02 123.9 0.1 210 -999
2011-10-24 07:37:07 51°13.633 2°56.02 123.9 -999 235 -999
2011-10-24 07:37:12 51°13.633 2°56.02 123.8 -999 269 -999
2011-10-24 07:37:17 51°13.632 2°56.02 123.7 -999 213 -999
2011-10-24 07:37:22 51°13.632 2°56.02 123.7 -999 205 8.8
2011-10-24 07:37:27 51°13.632 2°56.02 123.6 -999 186 -999
2011-10-24 07:37:32 51°13.632 2°56.02 123.6 -999 178 -999
2011-10-24 07:37:38 51°13.632 2°56.019 123.6 -999 237 -999
2011-10-24 07:37:43 51°13.632 2°56.019 123.6 -999 13 -999
2011-10-24 07:37:47 51°13.632 2°56.019 123.7 -999 219 -999
2011-10-24 07:37:52 51°13.632 2°56.019 123.7 -999 173 -999
2011-10-24 07:37:58 51°13.632 2°56.019 123.7 -999 38 -999
2011-10-24 07:38:03 51°13.632 2°56.019 123.7 -999 128 -999
2011-10-24 07:38:07 51°13.632 2°56.019 123.7 -999 203 -999
2011-10-24 07:38:12 51°13.632 2°56.019 123.7 -999 187 -999
2011-10-24 07:38:18 51°13.632 2°56.019 123.7 -999 198 -999
2011-10-24 07:38:23 51°13.632 2°56.02 123.7 -999 342 -999
2011-10-24 07:38:27 51°13.633 2°56.02 123.7 -999 9 -999
2011-10-24 07:38:32 51°13.633 2°56.02 123.8 -999 29 -999
2011-10-24 07:38:37 51°13.633 2°56.02 123.8 -999 34 -999
2011-10-24 07:38:43 51°13.633 2°56.021 123.8 -999 16 -999
2011-10-24 07:38:47 51°13.633 2°56.021 123.8 -999 19 -999
2011-10-24 07:38:52 51°13.633 2°56.021 123.8 -999 29 -999
2011-10-24 07:38:57 51°13.633 2°56.021 123.8 -999 341 -999
2011-10-24 07:39:02 51°13.633 2°56.021 123.8 -999 208 -999
2011-10-24 07:39:07 51°13.633 2°56.021 123.9 0.1 201 -999
2011-10-24 07:39:12 51°13.633 2°56.021 123.9 -999 27 -999
2011-10-24 07:39:17 51°13.633 2°56.021 123.9 -999 211 -999
2011-10-24 07:39:22 51°13.633 2°56.021 123.9 -999 52 -999
2011-10-24 07:39:27 51°13.633 2°56.021 123.9 -999 230 -999
2011-10-24 07:39:32 51°13.633 2°56.02 124 -999 38 -999
2011-10-24 07:39:37 51°13.633 2°56.02 124 -999 221 -999
2011-10-24 07:39:42 51°13.633 2°56.02 124.1 -999 196 8.7
2011-10-24 07:39:47 51°13.633 2°56.02 124.2 -999 161 -999
2011-10-24 07:39:53 51°13.633 2°56.02 124.2 -999 194 -999
2011-10-24 07:39:58 51°13.633 2°56.021 124.2 -999 122 8.7
2011-10-24 07:40:03 51°13.633 2°56.021 124.2 -999 41 -999
2011-10-24 07:40:07 51°13.633 2°56.022 124.2 0.1 33 -999
2011-10-24 07:40:12 51°13.633 2°56.022 124.2 -999 222 -999
2011-10-24 07:40:18 51°13.633 2°56.022 124.2 -999 242 -999
2011-10-24 07:40:23 51°13.633 2°56.022 124.2 -999 215 -999
2011-10-24 07:40:27 51°13.633 2°56.022 124.2 -999 15 -999
2011-10-24 07:40:32 51°13.633 2°56.022 124.1 -999 351 -999
2011-10-24 07:40:38 51°13.633 2°56.022 123.9 -999 36 -999
2011-10-24 07:40:43 51°13.633 2°56.022 123.9 -999 190 -999
2011-10-24 07:40:47 51°13.633 2°56.022 123.8 0.1 59 -999
2011-10-24 07:40:52 51°13.633 2°56.021 123.8 -999 228 -999
2011-10-24 07:40:57 51°13.633 2°56.021 123.8 -999 68 -999
2011-10-24 07:41:02 51°13.633 2°56.021 123.8 -999 146 -999
2011-10-24 07:41:07 51°13.633 2°56.021 123.8 -999 164 -999
2011-10-24 07:41:12 51°13.633 2°56.021 123.9 -999 258 -999
2011-10-24 07:41:17 51°13.633 2°56.021 124 -999 329 -999
2011-10-24 07:41:22 51°13.633 2°56.021 124 -999 218 -999
2011-10-24 07:41:27 51°13.633 2°56.021 124 -999 209 -999
2011-10-24 07:41:32 51°13.633 2°56.021 124 -999 214 -999
2011-10-24 07:41:37 51°13.633 2°56.021 124 -999 201 -999
2011-10-24 07:41:42 51°13.633 2°56.021 124 -999 64 -999
2011-10-24 07:41:47 51°13.633 2°56.021 124 -999 216 -999
2011-10-24 07:41:52 51°13.633 2°56.021 124 -999 205 -999
2011-10-24 07:41:57 51°13.633 2°56.02 124.1 -999 189 -999
2011-10-24 07:42:02 51°13.633 2°56.02 124.1 -999 137 -999
2011-10-24 07:42:07 51°13.633 2°56.02 124.1 -999 145 -999
2011-10-24 07:42:12 51°13.633 2°56.02 124.1 0.1 153 -999
2011-10-24 07:42:17 51°13.633 2°56.02 124.1 0.1 142 -999
2011-10-24 07:42:22 51°13.633 2°56.02 124.2 -999 9 -999
2011-10-24 07:42:27 51°13.633 2°56.02 124.4 -999 338 -999
2011-10-24 07:42:31 51°13.633 2°56.02 124.4 -999 275 8.8
2011-10-24 07:42:37 51°13.633 2°56.019 124.6 -999 202 -999
2011-10-24 07:42:42 51°13.633 2°56.019 124.9 -999 45 -999
2011-10-24 07:42:47 51°13.633 2°56.019 125.4 -999 219 -999
2011-10-24 07:42:52 51°13.633 2°56.019 125.5 -999 163 -999
2011-10-24 07:42:57 51°13.633 2°56.019 125.5 -999 67 8.8
2011-10-24 07:43:02 51°13.632 2°56.019 125 0.1 53 8.9
2011-10-24 07:43:07 51°13.632 2°56.019 124.5 -999 89 -999
2011-10-24 07:43:12 51°13.632 2°56.019 124.1 -999 35 -999
2011-10-24 07:43:17 51°13.632 2°56.019 123.6 -999 209 9.1
2011-10-24 07:43:22 51°13.632 2°56.019 123.3 0.1 191 -999
2011-10-24 07:43:27 51°13.632 2°56.019 122.7 0.1 182 -999
2011-10-24 07:43:32 51°13.632 2°56.019 122 -999 195 -999
2011-10-24 07:43:37 51°13.632 2°56.019 121.2 -999 167 -999
2011-10-24 07:43:42 51°13.632 2°56.019 120.5 -999 184 -999
2011-10-24 07:43:47 51°13.632 2°56.019 119.5 0.1 185 -999
2011-10-24 07:43:52 51°13.632 2°56.019 118.5 0.1 188 -999
2011-10-24 07:43:57 51°13.631 2°56.019 117.7 0.1 192 -999
2011-10-24 07:44:02 51°13.631 2°56.019 116.4 0.1 199 -999
2011-10-24 07:44:07 51°13.631 2°56.019 115.4 0.1 198 8.6
2011-10-24 07:44:12 51°13.631 2°56.019 114.3 0.1 198 8.6
2011-10-24 07:44:17 51°13.631 2°56.019 113 0.1 204 8.6
2011-10-24 07:44:22 51°13.631 2°56.019 111.7 0.1 204 8.6
2011-10-24 07:44:27 51°13.631 2°56.019 110.4 0.1 180 -999
2011-10-24 07:44:31 51°13.63 2°56.019 109.1 0.1 187 8.6
2011-10-24 07:44:37 51°13.63 2°56.019 107.7 0.1 210 8.6
2011-10-24 07:44:42 51°13.63 2°56.018 106.8 0.1 241 8.6
2011-10-24 07:44:47 51°13.63 2°56.018 105.3 0.3 276 8.5
2011-10-24 07:44:51 51°13.63 2°56.017 104.5 0.5 280 8.5
2011-10-24 07:44:56 51°13.63 2°56.015 103.6 0.8 276 -999
2011-10-24 07:45:01 51°13.631 2°56.013 103.2 1 283 8.5
2011-10-24 07:45:06 51°13.631 2°56.01 102.9 1.2 283 8.6
2011-10-24 07:45:11 51°13.632 2°56.007 102.9 1.4 284 8.7
2011-10-24 07:45:15 51°13.632 2°56.005 102.9 1.6 283 -999
2011-10-24 07:45:22 51°13.633 2°56 102.9 1.8 286 -999
2011-10-24 07:45:27 51°13.634 2°55.995 102.9 2 284 -999
2011-10-24 07:45:32 51°13.635 2°55.991 103 2.2 285 -999
2011-10-24 07:45:37 51°13.636 2°55.986 103.2 2.3 286 -999
2011-10-24 07:45:42 51°13.637 2°55.981 103.8 2.4 286 -999
2011-10-24 07:45:47 51°13.637 2°55.976 104.2 2.5 286 -999
2011-10-24 07:45:52 51°13.638 2°55.97 104.9 2.6 285 -999
2011-10-24 07:45:57 51°13.639 2°55.964 105.5 2.7 287 -999
2011-10-24 07:46:02 51°13.64 2°55.958 106.1 2.8 287 -999
2011-10-24 07:46:07 51°13.642 2°55.952 106.7 2.8 288 -999
2011-10-24 07:46:12 51°13.643 2°55.946 107.1 2.9 288 -999
2011-10-24 07:46:17 51°13.644 2°55.94 107.5 2.9 288 -999
2011-10-24 07:46:22 51°13.645 2°55.934 107.9 3 288 -999
2011-10-24 07:46:27 51°13.647 2°55.927 108.3 3.1 288 -999
2011-10-24 07:46:32 51°13.648 2°55.92 108.9 3.2 288 -999
2011-10-24 07:46:37 51°13.65 2°55.914 109.5 3.2 288 -999
2011-10-24 07:46:42 51°13.651 2°55.907 110.2 3.3 289 -999
2011-10-24 07:46:47 51°13.653 2°55.9 111.1 3.4 290 -999
2011-10-24 07:46:52 51°13.654 2°55.893 111.8 3.4 290 -999
2011-10-24 07:46:57 51°13.656 2°55.886 112.1 3.5 292 -999
2011-10-24 07:47:02 51°13.658 2°55.879 112.3 3.5 293 -999
2011-10-24 07:47:07 51°13.66 2°55.872 112.3 3.5 294 -999
2011-10-24 07:47:12 51°13.662 2°55.865 112.3 3.5 293 -999
2011-10-24 07:47:17 51°13.664 2°55.857 112.2 3.6 294 -999
2011-10-24 07:47:22 51°13.666 2°55.85 111.9 3.6 294 -999
2011-10-24 07:47:27 51°13.668 2°55.842 111.5 3.7 293 -999
2011-10-24 07:47:32 51°13.669 2°55.835 111.1 3.7 293 -999
2011-10-24 07:47:37 51°13.671 2°55.827 110.4 3.7 292 -999
2011-10-24 07:47:42 51°13.673 2°55.82 109.5 3.7 291 -999
2011-10-24 07:47:47 51°13.675 2°55.812 108.5 3.7 291 -999
2011-10-24 07:47:52 51°13.677 2°55.805 107.4 3.7 290 -999
2011-10-24 07:47:57 51°13.679 2°55.797 106.1 3.7 289 -999
2011-10-24 07:48:02 51°13.68 2°55.789 104.6 3.7 288 -999
2011-10-24 07:48:07 51°13.681 2°55.782 102.8 3.5 287 -999
2011-10-24 07:48:12 51°13.683 2°55.774 101.4 3.4 285 -999
2011-10-24 07:48:17 51°13.684 2°55.767 100.3 3.2 285 -999
2011-10-24 07:48:22 51°13.685 2°55.761 99.5 3.1 285 -999
2011-10-24 07:48:27 51°13.686 2°55.755 98.8 3 285 -999
2011-10-24 07:48:32 51°13.687 2°55.749 98.1 2.6 287 -999
2011-10-24 07:48:37 51°13.688 2°55.745 96.7 1.9 288 -999
2011-10-24 07:48:42 51°13.689 2°55.742 94.7 1.5 293 13.5
2011-10-24 07:48:47 51°13.689 2°55.74 92 0.9 302 13.6
2011-10-24 07:48:51 51°13.69 2°55.74 89.4 0.7 329 13.9
2011-10-24 07:48:57 51°13.691 2°55.741 82.9 0.7 18 13.8
2011-10-24 07:49:01 51°13.692 2°55.742 78.2 1 34 13.7
2011-10-24 07:49:06 51°13.693 2°55.744 71.8 1.4 38 13.7
2011-10-24 07:49:11 51°13.695 2°55.746 64.7 1.7 37 13.8
2011-10-24 07:49:16 51°13.699 2°55.748 55.4 1.9 37 13.7
2011-10-24 07:49:21 51°13.702 2°55.75 49.3 1.9 28 13.4
2011-10-24 07:49:26 51°13.704 2°55.751 41.8 1.8 25 13.8
2011-10-24 07:49:31 51°13.707 2°55.752 37 1.5 20 13.7
2011-10-24 07:49:35 51°13.708 2°55.753 32.7 1.3 17 13.7
2011-10-24 07:49:40 51°13.71 2°55.753 29.9 1 11 13.4
2011-10-24 07:49:45 51°13.711 2°55.753 26.3 0.8 5 13.5
2011-10-24 07:49:50 51°13.711 2°55.753 23.3 0.6 357 13.4
2011-10-24 07:49:55 51°13.711 2°55.753 21.1 0.4 332 13.4
2011-10-24 07:49:59 51°13.711 2°55.752 19.6 0.3 293 13.4
2011-10-24 07:50:04 51°13.711 2°55.752 18.3 0.3 260 13.3
2011-10-24 07:50:09 51°13.71 2°55.751 16.8 0.4 243 13.4
2011-10-24 07:50:14 51°13.709 2°55.75 15.4 0.6 226 13.4
2011-10-24 07:50:19 51°13.709 2°55.749 13.9 0.8 221 13.4
2011-10-24 07:50:24 51°13.707 2°55.747 12 1 216 -999
2011-10-24 07:50:30 51°13.706 2°55.746 10.5 1 214 -999
2011-10-24 07:50:35 51°13.704 2°55.745 8.7 1 215 -999
2011-10-24 07:50:41 51°13.703 2°55.743 7.3 0.8 221 -999
2011-10-24 07:50:47 51°13.703 2°55.742 6.3 0.5 238 -999
2011-10-24 07:50:52 51°13.703 2°55.741 4.4 0.5 283 13.6
2011-10-24 07:50:57 51°13.704 2°55.741 1.5 0.6 323 -999
2011-10-24 07:51:02 51°13.705 2°55.74 357.8 1.1 330 -999
2011-10-24 07:51:07 51°13.707 2°55.738 350.8 1.3 336 -999
2011-10-24 07:51:12 51°13.709 2°55.737 345.2 1.7 334 -999
2011-10-24 07:51:17 51°13.712 2°55.735 340 2 333 -999
2011-10-24 07:51:22 51°13.715 2°55.732 336.4 2.2 331 -999
2011-10-24 07:51:27 51°13.717 2°55.73 334.3 2.3 330 -999
2011-10-24 07:51:32 51°13.72 2°55.727 333.1 2.5 330 13.3
2011-10-24 07:51:37 51°13.724 2°55.724 332.4 2.8 330 13.4
2011-10-24 07:51:42 51°13.727 2°55.721 331.9 3.2 330 13.4
2011-10-24 07:51:46 51°13.731 2°55.717 331.8 2.9 329 13.2
2011-10-24 07:51:51 51°13.736 2°55.714 331.8 3.9 331 12.8
2011-10-24 07:51:53 51°13.738 2°55.712 332.1 0.9 332 12.7
2011-10-24 07:51:53 51°13.738 2°55.712 332.5 0.2 151 12.8
2011-10-24 07:51:53 51°13.738 2°55.712 332.5 -999 152 12.7
2011-10-24 07:51:53 51°13.738 2°55.712 332.5 -999 331 12.7
2011-10-24 07:51:53 51°13.738 2°55.712 332.6 -999 150 12.9
2011-10-24 07:51:53 51°13.738 2°55.712 332.9 -999 151 12.8
2011-10-24 07:51:53 51°13.738 2°55.712 333.2 -999 331 12.9
2011-10-24 07:51:53 51°13.738 2°55.712 333.7 -999 332 13.6
2011-10-24 07:51:53 51°13.738 2°55.712 334.7 -999 151 13.7
2011-10-24 07:51:53 51°13.738 2°55.712 335.5 -999 154 13.3
2011-10-24 07:51:53 51°13.738 2°55.712 336.1 -999 331 13.5
2011-10-24 07:51:53 51°13.738 2°55.712 335.9 -999 150 13.2
2011-10-24 07:52:57 51°13.738 2°55.712 337 -999 151 12.9
2011-10-24 07:53:02 51°13.738 2°55.712 337.4 -999 331 12.9
2011-10-24 07:53:07 51°13.738 2°55.712 336.8 -999 332 12.7
2011-10-24 07:53:12 51°13.738 2°55.712 336.6 -999 151 12.8
2011-10-24 07:53:17 51°13.738 2°55.712 337.2 -999 318 13.3
2011-10-24 07:53:22 51°13.738 2°55.712 337.1 -999 331 12.8
2011-10-24 07:53:27 51°13.738 2°55.712 336.7 -999 151 13.1
2011-10-24 07:53:31 51°13.738 2°55.712 335.7 -999 152 13
2011-10-24 07:53:37 51°13.738 2°55.712 334.6 -999 331 12.9
2011-10-24 07:53:42 51°13.738 2°55.712 335 -999 332 12.8
2011-10-24 07:53:47 51°13.738 2°55.712 336.5 -999 151 12.9
2011-10-24 07:53:51 51°13.738 2°55.712 336.5 -999 330 12.9
2011-10-24 07:53:57 51°13.738 2°55.712 336.1 -999 331 13
2011-10-24 07:54:02 51°13.738 2°55.712 336.6 -999 151 13.2
2011-10-24 07:54:07 51°13.738 2°55.712 336.4 -999 152 12.9
2011-10-24 07:54:11 51°13.738 2°55.712 335.5 -999 331 13
2011-10-24 07:54:17 51°13.738 2°55.712 336.1 -999 333 12.7
2011-10-24 07:54:22 51°13.738 2°55.712 337.3 -999 151 12.5
2011-10-24 07:54:27 51°13.738 2°55.712 337.6 -999 330 12.6
2011-10-24 07:54:31 51°13.738 2°55.712 337.6 -999 331 12.6
2011-10-24 07:54:37 51°13.738 2°55.712 338 -999 151 12.5
2011-10-24 07:54:42 51°13.738 2°55.712 337.6 -999 152 12.4
2011-10-24 07:54:47 51°13.738 2°55.712 336.1 -999 331 12.5
2011-10-24 07:54:51 51°13.738 2°55.712 335.7 -999 133 12.5
2011-10-24 07:54:57 51°13.738 2°55.712 335.8 -999 151 12.4
2011-10-24 07:55:02 51°13.738 2°55.712 335.2 -999 331 12.3
2011-10-24 07:55:07 51°13.738 2°55.712 334.3 -999 332 12.3
2011-10-24 07:55:12 51°13.738 2°55.712 334 -999 151 12.3
2011-10-24 07:55:17 51°13.738 2°55.712 334 -999 152 12.3
2011-10-24 07:55:22 51°13.738 2°55.712 333.3 -999 331 12.4
2011-10-24 07:55:27 51°13.738 2°55.712 333 -999 150 12.4
2011-10-24 07:55:32 51°13.738 2°55.712 333 -999 130 12.5
2011-10-24 07:55:37 51°13.738 2°55.712 332.6 -999 114 12.5
2011-10-24 07:55:42 51°13.738 2°55.712 332.8 -999 134 12.5
2011-10-24 07:55:47 51°13.738 2°55.712 332.9 -999 122 12.5
2011-10-24 07:55:52 51°13.738 2°55.712 332.7 -999 134 12.5
2011-10-24 07:55:57 51°13.738 2°55.712 332.5 -999 153 12.5
2011-10-24 07:56:02 51°13.738 2°55.712 331.7 -999 114 12.4
2011-10-24 07:56:06 51°13.738 2°55.712 331.5 -999 153 12.5
2011-10-24 07:56:12 51°14.294 2°55.287 331.6 8.4 331 12.5
2011-10-24 07:56:17 51°14.305 2°55.277 331 9.3 330 -999
2011-10-24 07:56:22 51°14.316 2°55.267 330.9 9 331 -999
2011-10-24 07:56:27 51°14.327 2°55.257 331 9 329 12.4
2011-10-24 07:56:32 51°14.338 2°55.246 330.2 9 329 12.4
2011-10-24 07:56:37 51°14.349 2°55.236 329.8 9.1 328 12.5
2011-10-24 07:56:42 51°14.359 2°55.225 329.5 9 328 12.4
2011-10-24 07:56:47 51°14.37 2°55.215 329 9 329 12.5
2011-10-24 07:56:51 51°14.379 2°55.207 329.6 9 329 12.6
2011-10-24 07:56:56 51°14.389 2°55.196 330.2 9 328 12.5
2011-10-24 07:57:01 51°14.4 2°55.186 330.2 9.1 330 12.7
2011-10-24 07:57:06 51°14.411 2°55.176 330.4 9.1 329 12.6
2011-10-24 07:57:11 51°14.422 2°55.166 330.3 9.1 329 12.6
2011-10-24 07:57:15 51°14.431 2°55.157 330.3 9.1 329 12.6
2011-10-24 07:57:20 51°14.441 2°55.146 329.9 9.1 328 12.3
2011-10-24 07:57:26 51°14.454 2°55.134 328.9 9.1 330 12.1
2011-10-24 07:57:30 51°14.463 2°55.126 329 9 331 12.1
2011-10-24 07:57:35 51°14.474 2°55.117 329.9 9 331 12.8
2011-10-24 07:57:40 51°14.485 2°55.107 330 8.9 329 13
2011-10-24 07:57:45 51°14.495 2°55.096 328.6 8.9 328 12.5
2011-10-24 07:57:50 51°14.505 2°55.085 326.7 8.8 327 12.7
2011-10-24 07:57:55 51°14.516 2°55.076 325.9 8.7 329 13
2011-10-24 07:57:59 51°14.524 2°55.068 326.5 8.7 330 12.9
2011-10-24 07:58:04 51°14.535 2°55.059 326.9 8.8 332 13
2011-10-24 07:58:09 51°14.546 2°55.051 327.6 8.7 335 13
2011-10-24 07:58:14 51°14.557 2°55.043 329.9 8.7 337 13.3
2011-10-24 07:58:19 51°14.568 2°55.035 330.3 8.8 336 13.3
2011-10-24 07:58:23 51°14.577 2°55.028 328.2 8.8 333 13.2
2011-10-24 07:58:29 51°14.59 2°55.018 326.6 8.8 334 13.2
2011-10-24 07:58:34 51°14.601 2°55.008 326.2 8.8 332 13.1
2011-10-24 07:58:39 51°14.611 2°54.999 325.5 8.8 332 13.2
2011-10-24 07:58:43 51°14.62 2°54.992 324.5 8.8 330 13.1
2011-10-24 07:58:49 51°14.632 2°54.98 323.1 8.8 329 13.1
2011-10-24 07:58:54 51°14.643 2°54.969 322 8.8 328 13.1
2011-10-24 07:58:59 51°14.653 2°54.959 320.9 8.8 327 13.1
2011-10-24 07:59:04 51°14.664 2°54.948 320.7 8.9 327 13.1
2011-10-24 07:59:08 51°14.672 2°54.939 320.8 8.8 327 13.2
2011-10-24 07:59:14 51°14.684 2°54.926 319.5 8.9 324 12.6
2011-10-24 07:59:19 51°14.694 2°54.914 317.8 8.9 324 12.6
2011-10-24 07:59:24 51°14.704 2°54.903 317.7 8.8 324 12.8
2011-10-24 07:59:29 51°14.714 2°54.891 317.7 8.9 323 12.8
2011-10-24 07:59:34 51°14.723 2°54.879 317.1 8.9 323 12.9
2011-10-24 07:59:39 51°14.733 2°54.867 316.6 8.8 322 12.7
2011-10-24 07:59:43 51°14.741 2°54.857 316 8.8 322 12.7
2011-10-24 07:59:49 51°14.752 2°54.843 315.8 8.9 322 12.7
2011-10-24 07:59:54 51°14.762 2°54.831 315.9 8.9 322 12.8
2011-10-24 07:59:59 51°14.772 2°54.819 316.5 8.9 322 12.8
2011-10-24 08:00:03 51°14.779 2°54.809 316.6 8.9 323 12.7
2011-10-24 08:00:08 51°14.789 2°54.798 317.2 8.9 323 12.7
2011-10-24 08:00:14 51°14.801 2°54.783 317.1 8.9 322 12.6
2011-10-24 08:00:19 51°14.811 2°54.771 316 8.9 321 12.7
2011-10-24 08:00:23 51°14.818 2°54.761 315.9 8.9 322 12.5
2011-10-24 08:00:29 51°14.83 2°54.746 316 8.9 322 12.5
2011-10-24 08:00:34 51°14.839 2°54.734 316 8.9 321 12.9
2011-10-24 08:00:39 51°14.849 2°54.723 316.5 8.9 323 13
2011-10-24 08:00:43 51°14.857 2°54.713 317.2 8.9 323 12.8
2011-10-24 08:00:49 51°14.869 2°54.699 317.9 8.9 324 12.7
2011-10-24 08:00:54 51°14.879 2°54.687 318.1 8.9 323 12.7
2011-10-24 08:00:59 51°14.889 2°54.675 318 8.9 324 12.7
2011-10-24 08:01:03 51°14.896 2°54.666 317.9 8.9 323 12.9
2011-10-24 08:01:08 51°14.906 2°54.654 317.9 8.9 323 12.6
2011-10-24 08:01:14 51°14.918 2°54.64 318 8.9 323 12.8
2011-10-24 08:01:19 51°14.928 2°54.628 317.8 8.8 322 12.8
2011-10-24 08:01:24 51°14.937 2°54.616 316.8 8.5 322 12.6
2011-10-24 08:01:28 51°14.944 2°54.608 316.4 8 322 12.6
2011-10-24 08:01:34 51°14.954 2°54.595 315.8 7.6 321 12.2
2011-10-24 08:01:39 51°14.961 2°54.585 315.1 7.2 321 12.6
2011-10-24 08:01:43 51°14.967 2°54.577 314.4 6.9 320 12.7
2011-10-24 08:01:49 51°14.976 2°54.566 314 6.6 321 12.8
2011-10-24 08:01:54 51°14.983 2°54.556 313.7 6.5 321 12.5
2011-10-24 08:01:59 51°14.99 2°54.548 313.6 6.3 321 12.7
2011-10-24 08:02:03 51°14.995 2°54.541 313.5 6.1 320 12.8
2011-10-24 08:02:09 51°15.002 2°54.531 313.2 5.9 321 12.8
2011-10-24 08:02:14 51°15.008 2°54.523 313.1 5.8 320 12.8
2011-10-24 08:02:19 51°15.015 2°54.515 313.2 5.7 321 12.8
2011-10-24 08:02:23 51°15.019 2°54.509 313.5 5.5 321 12.8
2011-10-24 08:02:29 51°15.026 2°54.5 313.7 5.5 322 12.6
2011-10-24 08:02:34 51°15.032 2°54.492 314.3 5.4 322 12.6
2011-10-24 08:02:39 51°15.038 2°54.485 314.4 5.3 322 12.6
2011-10-24 08:02:43 51°15.042 2°54.48 314.4 5.2 322 12.5
2011-10-24 08:02:49 51°15.049 2°54.471 314.4 5.2 323 12.5
2011-10-24 08:02:54 51°15.055 2°54.465 314.2 5.1 322 12.5
2011-10-24 08:02:59 51°15.06 2°54.458 314.2 5 323 12.4
2011-10-24 08:03:03 51°15.065 2°54.452 314.4 5 323 12.7
2011-10-24 08:03:08 51°15.07 2°54.446 314.7 4.9 323 12.6
2011-10-24 08:03:14 51°15.077 2°54.438 315.2 4.8 324 12.4
2011-10-24 08:03:19 51°15.082 2°54.432 315.7 4.8 324 12.4
2011-10-24 08:03:23 51°15.086 2°54.427 316.2 4.7 325 12.3
2011-10-24 08:03:29 51°15.093 2°54.42 316.8 4.6 326 12.4
2011-10-24 08:03:34 51°15.098 2°54.415 317.2 4.6 325 12.5
2011-10-24 08:03:39 51°15.103 2°54.409 317.4 4.6 327 12.4
2011-10-24 08:03:43 51°15.108 2°54.405 317.5 4.5 326 12.4
2011-10-24 08:03:49 51°15.114 2°54.398 317.6 4.5 327 12.2
2011-10-24 08:03:54 51°15.119 2°54.393 317.9 4.5 327 12.2
2011-10-24 08:03:59 51°15.124 2°54.387 318 4.4 327 12.3
2011-10-24 08:04:04 51°15.129 2°54.382 318.3 4.4 328 12.2
2011-10-24 08:04:09 51°15.135 2°54.377 318.4 4.4 328 12.1
2011-10-24 08:04:14 51°15.14 2°54.372 318.5 4.4 328 12.2
2011-10-24 08:04:19 51°15.145 2°54.367 318.4 4.3 328 12.1
2011-10-24 08:04:23 51°15.149 2°54.363 318.4 4.3 328 12.1
2011-10-24 08:04:29 51°15.155 2°54.357 318.4 4.3 329 12
2011-10-24 08:04:34 51°15.16 2°54.352 318.5 4.3 329 12
2011-10-24 08:04:39 51°15.165 2°54.347 318.6 4.3 329 11.9
2011-10-24 08:04:43 51°15.169 2°54.343 318.7 4.3 329 12
2011-10-24 08:04:49 51°15.175 2°54.337 318.7 4.2 329 12
2011-10-24 08:04:54 51°15.181 2°54.332 318.7 4.3 329 11.9
2011-10-24 08:04:59 51°15.186 2°54.327 318.7 4.2 329 11.9
2011-10-24 08:05:03 51°15.19 2°54.324 318.7 4.2 329 12
2011-10-24 08:05:08 51°15.195 2°54.319 318.7 4.2 329 11.9
2011-10-24 08:05:14 51°15.201 2°54.313 318.7 4.2 329 11.9
2011-10-24 08:05:19 51°15.205 2°54.308 318.7 4.1 328 11.8
2011-10-24 08:05:23 51°15.209 2°54.305 319 4.1 330 11.8
2011-10-24 08:05:29 51°15.215 2°54.299 318.6 4.1 327 11.7
2011-10-24 08:05:34 51°15.22 2°54.294 317.3 4 327 11.8
2011-10-24 08:05:39 51°15.224 2°54.289 315.8 4 325 11.9
2011-10-24 08:05:43 51°15.228 2°54.285 313.6 4 324 11.9
2011-10-24 08:05:49 51°15.233 2°54.278 311.9 3.9 322 11.8
2011-10-24 08:05:54 51°15.237 2°54.273 310.2 3.9 321 11.9
2011-10-24 08:05:59 51°15.241 2°54.267 308.8 3.9 319 11.9
2011-10-24 08:06:04 51°15.245 2°54.262 307.8 3.9 319 11.9
2011-10-24 08:06:08 51°15.249 2°54.257 307.1 3.9 317 12
2011-10-24 08:06:14 51°15.253 2°54.25 306.4 3.9 318 12
2011-10-24 08:06:19 51°15.257 2°54.245 305.9 3.9 316 12.1
2011-10-24 08:06:23 51°15.26 2°54.24 304.9 3.9 316 11.9
2011-10-24 08:06:29 51°15.265 2°54.233 304.3 3.8 314 12.1
2011-10-24 08:06:34 51°15.269 2°54.226 303.4 3.8 314 12.1
2011-10-24 08:06:39 51°15.272 2°54.22 302.7 3.8 313 12
2011-10-24 08:06:43 51°15.275 2°54.215 301.7 3.8 313 12.2
2011-10-24 08:06:49 51°15.279 2°54.208 301.1 3.8 311 12.3
2011-10-24 08:06:54 51°15.283 2°54.201 300.7 3.8 311 12.3
2011-10-24 08:06:59 51°15.286 2°54.195 300.3 3.8 311 12.4
2011-10-24 08:07:03 51°15.289 2°54.19 299.8 3.8 311 12.4
2011-10-24 08:07:08 51°15.292 2°54.183 299.7 3.8 310 12.6
2011-10-24 08:07:14 51°15.296 2°54.176 299.3 3.8 310 12.7
2011-10-24 08:07:19 51°15.299 2°54.169 299 3.7 308 12.9
2011-10-24 08:07:23 51°15.302 2°54.164 298.5 3.7 309 13.1
2011-10-24 08:07:29 51°15.306 2°54.156 298.2 3.8 308 13.2
2011-10-24 08:07:34 51°15.309 2°54.15 297.9 3.8 308 13.3
2011-10-24 08:07:39 51°15.312 2°54.143 297.7 3.8 307 13.4
2011-10-24 08:07:43 51°15.315 2°54.138 297.1 3.8 307 13.4
2011-10-24 08:07:49 51°15.318 2°54.13 296.9 3.8 306 13.5
2011-10-24 08:07:54 51°15.322 2°54.123 296.5 3.8 306 13.5
2011-10-24 08:07:59 51°15.325 2°54.116 296.1 3.8 306 13.4
2011-10-24 08:08:03 51°15.327 2°54.111 295.3 3.8 305 13.7
2011-10-24 08:08:09 51°15.331 2°54.103 295.4 3.8 306 13.8
2011-10-24 08:08:14 51°15.334 2°54.096 296.8 3.7 308 13.8
2011-10-24 08:08:19 51°15.337 2°54.09 299.3 3.7 312 13.7
2011-10-24 08:08:23 51°15.34 2°54.086 303 3.7 316 13.7
2011-10-24 08:08:28 51°15.344 2°54.081 307.6 3.7 322 13.9
2011-10-24 08:08:34 51°15.35 2°54.075 312.6 3.7 328 13.8
2011-10-24 08:08:39 51°15.354 2°54.072 318 3.6 333 13.7
2011-10-24 08:08:43 51°15.358 2°54.069 323.1 3.6 336 13.8
2011-10-24 08:08:49 51°15.363 2°54.066 328.5 3.7 341 13.6
2011-10-24 08:08:54 51°15.369 2°54.063 332.1 3.8 342 13.6
2011-10-24 08:08:59 51°15.374 2°54.061 333.8 3.8 343 13.6
2011-10-24 08:09:03 51°15.377 2°54.059 334.7 3.8 343 13.5
2011-10-24 08:09:08 51°15.382 2°54.057 334.8 3.8 343 13.4
2011-10-24 08:09:14 51°15.389 2°54.053 334 3.9 342 13.5
2011-10-24 08:09:19 51°15.394 2°54.051 332.8 3.9 340 13.2
2011-10-24 08:09:23 51°15.398 2°54.048 331.2 3.9 339 13
2011-10-24 08:09:29 51°15.404 2°54.044 329.3 4 338 12.9
2011-10-24 08:09:34 51°15.409 2°54.041 327.4 4 337 12.8
2011-10-24 08:09:39 51°15.414 2°54.037 325.4 4 335 12.9
2011-10-24 08:09:43 51°15.418 2°54.034 324.4 4.1 334 12.7
2011-10-24 08:09:49 51°15.424 2°54.029 323.5 4 333 12.5
2011-10-24 08:09:54 51°15.429 2°54.025 323 4.1 333 12.5
2011-10-24 08:09:59 51°15.434 2°54.021 322.3 4.1 332 12.6
2011-10-24 08:10:03 51°15.438 2°54.017 322 4.1 332 12.5
2011-10-24 08:10:08 51°15.444 2°54.013 322.3 4.2 333 12.4
2011-10-24 08:10:14 51°15.45 2°54.008 322.9 4.2 334 12.5
2011-10-24 08:10:19 51°15.455 2°54.004 323.7 4.3 334 12.4
2011-10-24 08:10:24 51°15.461 2°54 324.7 4.3 336 12.5
2011-10-24 08:10:29 51°15.466 2°53.996 325.3 4.3 336 12.6
2011-10-24 08:10:34 51°15.472 2°53.992 326.2 4.4 337 12.6
2011-10-24 08:10:39 51°15.477 2°53.988 326.9 4.4 337 12.4
2011-10-24 08:10:43 51°15.482 2°53.985 327.4 4.3 337 12.5
2011-10-24 08:10:49 51°15.489 2°53.981 327.6 4.4 338 12.5
2011-10-24 08:10:54 51°15.494 2°53.977 328 4.4 338 12.4
2011-10-24 08:10:59 51°15.5 2°53.973 328.2 4.4 338 12.5
2011-10-24 08:11:03 51°15.505 2°53.971 328.4 4.4 339 12.5
2011-10-24 08:11:09 51°15.511 2°53.966 328.3 4.4 338 12.5
2011-10-24 08:11:14 51°15.517 2°53.963 327.7 4.4 338 12.6
2011-10-24 08:11:19 51°15.523 2°53.958 326.9 4.4 336 12.4
2011-10-24 08:11:23 51°15.527 2°53.955 325.8 4.4 336 12.6
2011-10-24 08:11:29 51°15.534 2°53.95 324.5 4.4 334 12.5
2011-10-24 08:11:34 51°15.54 2°53.946 323.5 4.5 335 12.6
2011-10-24 08:11:39 51°15.545 2°53.941 322.8 4.4 333 12.6
2011-10-24 08:11:43 51°15.549 2°53.938 322.3 4.5 333 12.6
2011-10-24 08:11:49 51°15.556 2°53.932 322 4.5 333 12.7
2011-10-24 08:11:54 51°15.562 2°53.928 321.9 4.5 333 12.6
2011-10-24 08:11:59 51°15.567 2°53.923 322 4.5 333 12.7
2011-10-24 08:12:03 51°15.571 2°53.92 322.1 4.5 333 12.6
2011-10-24 08:12:08 51°15.577 2°53.915 322.3 4.5 333 12.7
2011-10-24 08:12:14 51°15.584 2°53.91 322.1 4.5 332 12.6
2011-10-24 08:12:19 51°15.589 2°53.905 321.7 4.5 332 12.7
2011-10-24 08:12:23 51°15.594 2°53.901 321.2 4.4 331 12.6
2011-10-24 08:12:29 51°15.6 2°53.895 320.3 4.5 330 12.7
2011-10-24 08:12:34 51°15.606 2°53.89 319.5 4.5 330 12.8
2011-10-24 08:12:39 51°15.611 2°53.885 319 4.4 329 12.7
2011-10-24 08:12:43 51°15.615 2°53.881 318.1 4.4 328 12.8
2011-10-24 08:12:49 51°15.621 2°53.875 317.4 4.4 328 12.8
2011-10-24 08:12:54 51°15.626 2°53.87 316.8 4.4 327 12.8
2011-10-24 08:12:59 51°15.631 2°53.865 315.9 4.4 327 12.8
2011-10-24 08:13:03 51°15.635 2°53.86 315.2 4.4 326 12.7
2011-10-24 08:13:09 51°15.641 2°53.854 314.4 4.3 325 12.7
2011-10-24 08:13:14 51°15.646 2°53.848 313.2 4.3 324 12.9
2011-10-24 08:13:19 51°15.651 2°53.842 312.2 4.3 323 12.8
2011-10-24 08:13:23 51°15.654 2°53.838 311 4.2 322 12.8
2011-10-24 08:13:28 51°15.659 2°53.832 310 4.2 322 12.9
2011-10-24 08:13:34 51°15.664 2°53.825 309.1 4.2 320 13
2011-10-24 08:13:39 51°15.669 2°53.819 308.6 4.2 320 12.8
2011-10-24 08:13:43 51°15.672 2°53.814 307.9 4.2 319 12.9
2011-10-24 08:13:49 51°15.678 2°53.806 307.6 4.3 319 12.9
2011-10-24 08:13:54 51°15.682 2°53.8 307.1 4.2 318 12.9
2011-10-24 08:13:59 51°15.686 2°53.794 306.6 4.2 318 12.8
2011-10-24 08:14:03 51°15.69 2°53.789 306.1 4.2 319 12.9
2011-10-24 08:14:08 51°15.694 2°53.783 306.2 4.1 321 13
2011-10-24 08:14:14 51°15.7 2°53.777 309 4.1 325 13
2011-10-24 08:14:19 51°15.705 2°53.772 313.4 4 330 12.9
2011-10-24 08:14:23 51°15.709 2°53.769 318.5 4 334 13.1
2011-10-24 08:14:29 51°15.715 2°53.765 323.1 4 338 13.1
2011-10-24 08:14:34 51°15.72 2°53.762 327.1 4 340 12.9
2011-10-24 08:14:39 51°15.725 2°53.759 330.1 4.1 343 13.1
2011-10-24 08:14:43 51°15.73 2°53.757 332.3 4.1 344 13
2011-10-24 08:14:49 51°15.736 2°53.755 333.6 4.1 346 12.9
2011-10-24 08:14:54 51°15.742 2°53.753 334.7 4.1 346 13.1
2011-10-24 08:14:59 51°15.748 2°53.751 335.6 4.2 347 13.1
2011-10-24 08:15:03 51°15.752 2°53.749 336.4 4.2 350 13.1
2011-10-24 08:15:09 51°15.759 2°53.747 337.2 4.2 350 12.9
2011-10-24 08:15:14 51°15.765 2°53.746 338.9 4.2 353 13.1
2011-10-24 08:15:19 51°15.771 2°53.746 342.6 4.2 359 13.1
2011-10-24 08:15:23 51°15.775 2°53.746 347.1 4.1 2 13.1
2011-10-24 08:15:29 51°15.782 2°53.748 352.2 4.1 8 12.9
2011-10-24 08:15:34 51°15.788 2°53.749 357.2 4 10 13
2011-10-24 08:15:39 51°15.793 2°53.752 2.3 4.1 16 13.1
2011-10-24 08:15:43 51°15.798 2°53.754 7.3 4.1 19 13.1
2011-10-24 08:15:48 51°15.803 2°53.758 12 4 24 13.1
2011-10-24 08:15:54 51°15.808 2°53.762 16.8 4 27 13.1
2011-10-24 08:15:59 51°15.813 2°53.767 21.3 3.9 31 13.1
2011-10-24 08:16:03 51°15.817 2°53.77 25.5 3.9 33 13
2011-10-24 08:16:08 51°15.821 2°53.775 29.8 3.9 37 13
2011-10-24 08:16:14 51°15.826 2°53.782 33.8 3.9 39 13.1
2011-10-24 08:16:19 51°15.83 2°53.788 37.8 3.8 43 13
2011-10-24 08:16:23 51°15.833 2°53.793 41.9 3.8 44 13
2011-10-24 08:16:29 51°15.837 2°53.8 45.8 3.8 48 13.1
2011-10-24 08:16:34 51°15.841 2°53.807 49.5 3.8 51 13
2011-10-24 08:16:39 51°15.844 2°53.813 53.2 3.8 54 13
2011-10-24 08:16:43 51°15.846 2°53.819 56.9 3.8 56 13
2011-10-24 08:16:49 51°15.849 2°53.827 60.6 3.8 59 13
2011-10-24 08:16:54 51°15.852 2°53.835 64.2 3.8 60 13
2011-10-24 08:16:59 51°15.855 2°53.842 67 3.8 62 13
2011-10-24 08:17:03 51°15.856 2°53.848 69.8 3.8 63 12.9
2011-10-24 08:17:09 51°15.859 2°53.857 70.6 3.9 64 13
2011-10-24 08:17:14 51°15.862 2°53.865 71.2 3.9 64 13
2011-10-24 08:17:19 51°15.864 2°53.873 71.2 4 64 12.9
2011-10-24 08:17:23 51°15.866 2°53.88 70.5 4 63 12.9
2011-10-24 08:17:29 51°15.869 2°53.889 70 4.1 64 13
2011-10-24 08:17:34 51°15.872 2°53.898 69.7 4.2 64 13
2011-10-24 08:17:39 51°15.874 2°53.906 69.4 4.2 64 13
2011-10-24 08:17:43 51°15.876 2°53.913 69.2 4.2 64 12.9
2011-10-24 08:17:49 51°15.88 2°53.923 69 4.2 63 12.9
2011-10-24 08:17:54 51°15.882 2°53.931 68.6 4.2 62 12.9
2011-10-24 08:17:59 51°15.885 2°53.939 68.2 4.1 63 12.9
2011-10-24 08:18:03 51°15.887 2°53.945 67.8 4.2 62 12.9
2011-10-24 08:18:08 51°15.89 2°53.953 67.4 4.2 61 12.9
2011-10-24 08:18:14 51°15.893 2°53.963 66.9 4.2 60 12.9
2011-10-24 08:18:19 51°15.896 2°53.971 66.4 4.2 60 12.9
2011-10-24 08:18:23 51°15.899 2°53.977 66.1 4.2 60 12.9
2011-10-24 08:18:29 51°15.902 2°53.987 65.8 4.2 60 13
2011-10-24 08:18:34 51°15.905 2°53.995 65.5 4.2 60 12.9
2011-10-24 08:18:39 51°15.908 2°54.003 65.3 4.2 60 12.9
2011-10-24 08:18:43 51°15.91 2°54.009 65.2 4.2 59 12.9
2011-10-24 08:18:49 51°15.914 2°54.019 64.8 4.1 60 12.8
2011-10-24 08:18:54 51°15.916 2°54.026 64.7 4.1 60 12.8
2011-10-24 08:18:59 51°15.919 2°54.034 64.5 4.1 60 12.9
2011-10-24 08:19:03 51°15.922 2°54.041 64.2 4.1 60 12.9
2011-10-24 08:19:08 51°15.925 2°54.048 63.9 4.1 59 12.9
2011-10-24 08:19:14 51°15.928 2°54.058 63.6 4.1 60 12.9
2011-10-24 08:19:19 51°15.931 2°54.065 63.5 4.1 59 12.9
2011-10-24 08:19:23 51°15.933 2°54.072 63.3 4.1 59 12.9
2011-10-24 08:19:29 51°15.937 2°54.081 63.2 4.1 58 12.9
2011-10-24 08:19:34 51°15.94 2°54.089 62.9 4.1 58 12.9
2011-10-24 08:19:39 51°15.943 2°54.096 62.6 4.1 58 12.8
2011-10-24 08:19:43 51°15.945 2°54.103 62.4 4.2 58 12.9
2011-10-24 08:19:49 51°15.949 2°54.112 62.1 4.1 58 12.8
2011-10-24 08:19:54 51°15.952 2°54.12 61.8 4.1 57 12.9
2011-10-24 08:19:59 51°15.955 2°54.127 61.6 4.1 58 12.8
2011-10-24 08:20:03 51°15.958 2°54.133 61.4 4.2 57 12.9
2011-10-24 08:20:09 51°15.962 2°54.143 61.1 4.1 58 12.8
2011-10-24 08:20:14 51°15.965 2°54.15 60.7 4.1 57 12.9
2011-10-24 08:20:19 51°15.968 2°54.158 60.6 4.1 57 12.9
2011-10-24 08:20:23 51°15.97 2°54.164 60.3 4.1 56 12.9
2011-10-24 08:20:29 51°15.974 2°54.173 60.2 4.1 56 12.9
2011-10-24 08:20:34 51°15.977 2°54.18 59.9 4.1 56 12.9
2011-10-24 08:20:39 51°15.98 2°54.188 59.7 4.1 57 12.9
2011-10-24 08:20:43 51°15.983 2°54.194 59.6 4.1 57 12.9
2011-10-24 08:20:48 51°15.986 2°54.201 59.7 4.1 57 12.8
2011-10-24 08:20:54 51°15.99 2°54.21 60.1 4 57 12.9
2011-10-24 08:20:59 51°15.993 2°54.218 61.1 4 58 12.9
2011-10-24 08:21:03 51°15.995 2°54.224 61.8 3.9 58 12.8
2011-10-24 08:21:08 51°15.998 2°54.231 62.2 3.9 59 12.9
2011-10-24 08:21:14 51°16.001 2°54.24 62.9 3.8 59 12.9
2011-10-24 08:21:19 51°16.004 2°54.247 63.6 3.8 59 12.9
2011-10-24 08:21:23 51°16.006 2°54.252 64.2 3.7 60 12.9
2011-10-24 08:21:29 51°16.009 2°54.261 65.2 3.7 59 12.9
2011-10-24 08:21:34 51°16.011 2°54.268 65.9 3.7 61 12.9
2011-10-24 08:21:39 51°16.014 2°54.275 66.8 3.6 60 12.8
2011-10-24 08:21:43 51°16.016 2°54.281 67.9 3.6 61 12.9
2011-10-24 08:21:49 51°16.019 2°54.289 68.7 3.6 62 12.9
2011-10-24 08:21:54 51°16.021 2°54.296 69.8 3.5 62 12.9
2011-10-24 08:21:59 51°16.023 2°54.303 70.7 3.5 62 12.9
2011-10-24 08:22:03 51°16.025 2°54.309 71.7 3.5 63 12.8
2011-10-24 08:22:09 51°16.028 2°54.317 72.3 3.5 63 12.8
2011-10-24 08:22:14 51°16.03 2°54.324 72.5 3.5 64 12.9
2011-10-24 08:22:19 51°16.032 2°54.331 72.5 3.5 64 12.9
2011-10-24 08:22:23 51°16.033 2°54.336 72.7 3.5 65 12.8
2011-10-24 08:22:29 51°16.036 2°54.344 73.3 3.4 66 12.8
2011-10-24 08:22:34 51°16.038 2°54.351 74.4 3.4 67 13
2011-10-24 08:22:39 51°16.039 2°54.358 75.6 3.4 67 12.9
2011-10-24 08:22:43 51°16.041 2°54.364 77.2 3.4 68 12.9
2011-10-24 08:22:48 51°16.043 2°54.371 78.5 3.3 69 12.9
2011-10-24 08:22:54 51°16.044 2°54.379 80.1 3.3 71 12.9
2011-10-24 08:22:59 51°16.046 2°54.386 81.8 3.3 70 12.8
2011-10-24 08:23:03 51°16.047 2°54.391 83.6 3.2 73 12.9
2011-10-24 08:23:09 51°16.049 2°54.399 85.1 3.2 73 13
2011-10-24 08:23:14 51°16.05 2°54.406 86.7 3.1 76 12.8
2011-10-24 08:23:19 51°16.051 2°54.413 88.3 3.2 74 12.9
2011-10-24 08:23:23 51°16.052 2°54.418 89.8 3.1 76 12.9
2011-10-24 08:23:29 51°16.053 2°54.426 90.7 3.1 76 12.9
2011-10-24 08:23:34 51°16.054 2°54.432 91.5 3 78 12.8
2011-10-24 08:23:39 51°16.055 2°54.439 92.3 3 78 12.9
2011-10-24 08:23:44 51°16.056 2°54.446 92.6 3 77 12.9
2011-10-24 08:23:48 51°16.057 2°54.451 92.9 3.1 75 12.8
2011-10-24 08:23:54 51°16.058 2°54.459 92.8 3.1 77 12.7
2011-10-24 08:23:59 51°16.059 2°54.465 92.5 3.1 76 12.9
2011-10-24 08:24:04 51°16.06 2°54.472 92 3.2 77 12.9
2011-10-24 08:24:09 51°16.061 2°54.479 91.5 3.2 73 12.9
2011-10-24 08:24:14 51°16.062 2°54.486 90.5 3.1 78 12.9
2011-10-24 08:24:19 51°16.063 2°54.493 88.6 3.3 71 13
2011-10-24 08:24:23 51°16.064 2°54.498 85.7 3.2 74 12.9
2011-10-24 08:24:29 51°16.067 2°54.506 82.6 3.3 67 12.8
2011-10-24 08:24:34 51°16.068 2°54.513 79 3.2 69 12.8
2011-10-24 08:24:39 51°16.07 2°54.519 75.1 3.3 63 13
2011-10-24 08:24:43 51°16.072 2°54.525 70 3.3 64 12.9
2011-10-24 08:24:48 51°16.074 2°54.531 66.7 3.4 60 12.9
2011-10-24 08:24:54 51°16.077 2°54.539 63 3.4 59 13
2011-10-24 08:24:59 51°16.08 2°54.545 60.3 3.5 56 13
2011-10-24 08:25:03 51°16.082 2°54.551 57 3.6 56 12.9
2011-10-24 08:25:09 51°16.086 2°54.558 55.7 3.6 52 13
2011-10-24 08:25:14 51°16.089 2°54.564 53.6 3.7 53 12.9
2011-10-24 08:25:19 51°16.092 2°54.571 52 3.7 50 12.9
2011-10-24 08:25:23 51°16.095 2°54.576 50.9 3.8 50 13
2011-10-24 08:25:29 51°16.099 2°54.584 50.1 3.8 49 13
2011-10-24 08:25:34 51°16.102 2°54.59 49.7 3.9 50 12.9
2011-10-24 08:25:39 51°16.106 2°54.597 50.1 3.9 50 13
2011-10-24 08:25:43 51°16.109 2°54.602 51.2 3.9 50 13.1
2011-10-24 08:25:48 51°16.112 2°54.609 52.2 3.9 53 13
2011-10-24 08:25:54 51°16.116 2°54.618 53.5 4 54 13
2011-10-24 08:25:59 51°16.119 2°54.625 55.5 3.9 55 13
2011-10-24 08:26:04 51°16.122 2°54.632 57.4 3.9 56 13.2
2011-10-24 08:26:08 51°16.124 2°54.638 59.3 3.9 57 13.1
2011-10-24 08:26:14 51°16.128 2°54.646 60.7 3.9 58 13
2011-10-24 08:26:19 51°16.131 2°54.654 61.8 3.9 58 13
2011-10-24 08:26:23 51°16.133 2°54.66 62.5 3.9 59 13.2
2011-10-24 08:26:29 51°16.136 2°54.669 62.8 3.9 58 13.1
2011-10-24 08:26:34 51°16.139 2°54.676 62.8 4 59 13.1
2011-10-24 08:26:39 51°16.142 2°54.684 62.8 4 59 13.1
2011-10-24 08:26:43 51°16.144 2°54.69 63 4 58 13.1
2011-10-24 08:26:49 51°16.148 2°54.699 62.7 4 58 13.2
2011-10-24 08:26:54 51°16.15 2°54.706 62.6 4 58 13.1
2011-10-24 08:26:59 51°16.153 2°54.714 62.5 4 58 13.1
2011-10-24 08:27:03 51°16.156 2°54.72 62.4 4.1 58 13.1
2011-10-24 08:27:09 51°16.159 2°54.729 62.3 4.1 58 13.2
2011-10-24 08:27:14 51°16.162 2°54.737 62.2 4.1 59 13.1
2011-10-24 08:27:19 51°16.165 2°54.745 62.2 4.1 58 13.1
2011-10-24 08:27:23 51°16.168 2°54.751 62.1 4.1 58 13.3
2011-10-24 08:27:29 51°16.171 2°54.76 62.1 4.1 58 13.2
2011-10-24 08:27:34 51°16.174 2°54.768 61.9 4.1 58 13.2
2011-10-24 08:27:39 51°16.177 2°54.776 61.9 4.2 58 13.1
2011-10-24 08:27:43 51°16.18 2°54.782 61.9 4.2 58 13.1
2011-10-24 08:27:48 51°16.183 2°54.79 61.9 4.1 58 13.2
2011-10-24 08:27:54 51°16.187 2°54.799 62 4.2 57 13.1
2011-10-24 08:27:59 51°16.19 2°54.807 61.9 4.2 58 13.2
2011-10-24 08:28:03 51°16.192 2°54.813 61.8 4.2 58 13.1
2011-10-24 08:28:09 51°16.196 2°54.823 61.8 4.2 58 13.1
2011-10-24 08:28:14 51°16.199 2°54.831 61.8 4.2 58 13.1
2011-10-24 08:28:19 51°16.202 2°54.838 61.9 4.2 58 13.2
2011-10-24 08:28:23 51°16.204 2°54.845 62 4.2 58 13.2
2011-10-24 08:28:29 51°16.208 2°54.854 61.9 4.2 58 13.2
2011-10-24 08:28:34 51°16.211 2°54.862 61.9 4.2 58 13.2
2011-10-24 08:28:39 51°16.214 2°54.87 61.8 4.2 58 13.2
2011-10-24 08:28:43 51°16.217 2°54.877 61.8 4.2 58 13.2
2011-10-24 08:28:49 51°16.221 2°54.886 61.9 4.2 58 13.3
2011-10-24 08:28:54 51°16.224 2°54.894 61.8 4.2 58 13.2
2011-10-24 08:28:59 51°16.227 2°54.902 61.8 4.2 58 13
2011-10-24 08:29:03 51°16.229 2°54.909 61.8 4.3 58 13
2011-10-24 08:29:09 51°16.233 2°54.918 61.8 4.3 58 13.2
2011-10-24 08:29:14 51°16.236 2°54.926 61.8 4.3 59 13.2
2011-10-24 08:29:19 51°16.239 2°54.934 61.8 4.3 58 13.2
2011-10-24 08:29:23 51°16.242 2°54.941 61.8 4.3 59 13.2
2011-10-24 08:29:29 51°16.246 2°54.95 61.8 4.3 59 13.2
2011-10-24 08:29:34 51°16.249 2°54.959 61.8 4.3 58 13.2
2011-10-24 08:29:39 51°16.252 2°54.967 61.8 4.3 58 13
2011-10-24 08:29:43 51°16.255 2°54.973 61.8 4.4 58 13
2011-10-24 08:29:48 51°16.258 2°54.981 61.8 4.3 58 12.9
2011-10-24 08:29:54 51°16.262 2°54.991 61.8 4.3 58 13.1
2011-10-24 08:29:59 51°16.265 2°54.999 61.7 4.3 57 13.2
2011-10-24 08:30:03 51°16.267 2°55.005 61.6 4.3 58 13.3
2011-10-24 08:30:09 51°16.271 2°55.015 61.3 4.3 58 13.3
2011-10-24 08:30:14 51°16.274 2°55.023 61.3 4.3 57 13.3
2011-10-24 08:30:19 51°16.278 2°55.031 61.2 4.3 57 13.2
2011-10-24 08:30:23 51°16.28 2°55.038 61.1 4.3 58 13.1
2011-10-24 08:30:29 51°16.284 2°55.047 61 4.3 57 13
2011-10-24 08:30:34 51°16.287 2°55.055 61 4.3 58 13.2
2011-10-24 08:30:39 51°16.29 2°55.063 61 4.3 58 12.9
2011-10-24 08:30:43 51°16.293 2°55.07 61 4.3 58 12.9
2011-10-24 08:30:49 51°16.297 2°55.08 61.1 4.4 58 12.8
2011-10-24 08:30:54 51°16.3 2°55.088 61 4.4 58 13
2011-10-24 08:30:59 51°16.304 2°55.096 61 4.4 58 13.2
2011-10-24 08:31:03 51°16.306 2°55.103 61 4.4 58 13.2
2011-10-24 08:31:08 51°16.31 2°55.111 61 4.4 58 13.4
2011-10-24 08:31:14 51°16.313 2°55.121 61 4.4 59 13.3
2011-10-24 08:31:19 51°16.317 2°55.129 61.1 4.4 58 13.3
2011-10-24 08:31:23 51°16.319 2°55.136 61.1 4.4 59 13.2
2011-10-24 08:31:29 51°16.323 2°55.145 61.2 4.4 58 13.2
2011-10-24 08:31:34 51°16.326 2°55.154 61.4 4.4 59 13.3
2011-10-24 08:31:39 51°16.329 2°55.162 61.5 4.4 58 13.1
2011-10-24 08:31:43 51°16.332 2°55.169 61.5 4.4 58 13.1
2011-10-24 08:31:48 51°16.335 2°55.177 61.5 4.4 57 13.2
2011-10-24 08:31:54 51°16.339 2°55.187 61.2 4.4 57 13.1
2011-10-24 08:31:59 51°16.342 2°55.195 61.1 4.4 57 13.2
2011-10-24 08:32:03 51°16.345 2°55.201 60.9 4.4 58 13.3
2011-10-24 08:32:08 51°16.348 2°55.209 60.8 4.4 57 13.3
2011-10-24 08:32:14 51°16.352 2°55.219 60.6 4.4 57 13.2
2011-10-24 08:32:19 51°16.356 2°55.227 60.4 4.4 56 13.1
2011-10-24 08:32:23 51°16.359 2°55.234 60.2 4.4 57 13.1
2011-10-24 08:32:29 51°16.363 2°55.244 60 4.4 56 13.2
2011-10-24 08:32:34 51°16.366 2°55.252 59.6 4.4 56 13.1
2011-10-24 08:32:39 51°16.369 2°55.26 59.5 4.4 56 13.2
2011-10-24 08:32:43 51°16.372 2°55.266 59.4 4.4 56 13.3
2011-10-24 08:32:48 51°16.376 2°55.274 59.3 4.4 56 13.2
2011-10-24 08:32:54 51°16.38 2°55.284 59.2 4.4 56 13.2
2011-10-24 08:32:59 51°16.383 2°55.292 59.2 4.4 55 13.2
2011-10-24 08:33:03 51°16.386 2°55.298 59.2 4.4 55 13.1
2011-10-24 08:33:09 51°16.39 2°55.308 59.2 4.4 56 13.2
2011-10-24 08:33:14 51°16.393 2°55.316 59.2 4.4 56 13.2
2011-10-24 08:33:19 51°16.397 2°55.324 59.2 4.4 55 13.2
2011-10-24 08:33:23 51°16.4 2°55.331 59.2 4.5 56 13.2
2011-10-24 08:33:29 51°16.404 2°55.341 59.2 4.5 56 13.2
2011-10-24 08:33:34 51°16.407 2°55.349 59.4 4.5 56 13.1
2011-10-24 08:33:39 51°16.411 2°55.357 59.4 4.5 56 13.1
2011-10-24 08:33:43 51°16.413 2°55.364 59.6 4.5 57 13.1
2011-10-24 08:33:49 51°16.417 2°55.374 59.8 4.5 57 13.1
2011-10-24 08:33:54 51°16.421 2°55.382 60 4.5 56 13
2011-10-24 08:33:59 51°16.424 2°55.391 60 4.5 56 13.1
2011-10-24 08:34:03 51°16.427 2°55.397 59.9 4.5 57 13
2011-10-24 08:34:09 51°16.431 2°55.407 59.9 4.5 57 12.9
2011-10-24 08:34:14 51°16.434 2°55.415 60 4.5 56 12.9
2011-10-24 08:34:19 51°16.438 2°55.424 59.8 4.5 56 12.8
2011-10-24 08:34:23 51°16.441 2°55.43 59.6 4.5 56 12.8
2011-10-24 08:34:29 51°16.445 2°55.44 59.4 4.5 55 12.7
2011-10-24 08:34:34 51°16.449 2°55.448 59.1 4.5 55 12.7
2011-10-24 08:34:39 51°16.452 2°55.456 58.6 4.5 55 12.6
2011-10-24 08:34:43 51°16.455 2°55.463 58.4 4.5 54 12.7
2011-10-24 08:34:48 51°16.459 2°55.471 58.2 4.5 55 12.7
2011-10-24 08:34:54 51°16.463 2°55.48 58.1 4.5 54 12.8
2011-10-24 08:34:59 51°16.467 2°55.489 58 4.5 55 12.7
2011-10-24 08:35:03 51°16.47 2°55.495 58 4.5 55 12.6
2011-10-24 08:35:09 51°16.474 2°55.505 58.2 4.5 56 12.6
2011-10-24 08:35:14 51°16.477 2°55.513 58.2 4.5 56 12.6
2011-10-24 08:35:19 51°16.481 2°55.522 58.3 4.5 56 12.7
2011-10-24 08:35:23 51°16.483 2°55.528 59.4 4.5 57 12.8
2011-10-24 08:35:29 51°16.488 2°55.539 60.5 4.5 58 12.7
2011-10-24 08:35:34 51°16.491 2°55.547 61.8 4.5 59 12.8
2011-10-24 08:35:39 51°16.494 2°55.556 63.2 4.5 59 12.7
2011-10-24 08:35:43 51°16.497 2°55.562 64.5 4.5 60 12.7
2011-10-24 08:35:48 51°16.5 2°55.571 65.8 4.4 61 12.7
2011-10-24 08:35:54 51°16.503 2°55.581 66.9 4.4 61 12.6
2011-10-24 08:35:59 51°16.506 2°55.59 68.3 4.4 62 12.6
2011-10-24 08:36:03 51°16.508 2°55.597 69.5 4.4 63 12.7
2011-10-24 08:36:09 51°16.511 2°55.607 70.5 4.3 64 12.6
2011-10-24 08:36:14 51°16.514 2°55.616 71.9 4.3 65 12.5
2011-10-24 08:36:19 51°16.517 2°55.625 73.1 4.3 65 12.6
2011-10-24 08:36:23 51°16.518 2°55.632 74.1 4.3 66 12.6
2011-10-24 08:36:29 51°16.521 2°55.642 75.2 4.3 67 12.6
2011-10-24 08:36:34 51°16.524 2°55.651 76.3 4.2 68 12.6
2011-10-24 08:36:39 51°16.526 2°55.659 77.7 4.2 69 12.6
2011-10-24 08:36:43 51°16.527 2°55.666 78.8 4.2 69 12.7
2011-10-24 08:36:48 51°16.529 2°55.675 80.1 4.2 71 12.6
2011-10-24 08:36:54 51°16.532 2°55.685 82.2 4.1 71 12.6
2011-10-24 08:36:59 51°16.533 2°55.694 84.3 4 73 12.6
2011-10-24 08:37:03 51°16.534 2°55.701 86.6 4 74 12.6
2011-10-24 08:37:09 51°16.536 2°55.711 88.6 3.9 76 12.6
2011-10-24 08:37:14 51°16.537 2°55.719 91.7 3.9 78 12.6
2011-10-24 08:37:19 51°16.537 2°55.727 93.9 3.8 79 12.6
2011-10-24 08:37:23 51°16.538 2°55.734 97.2 3.7 81 12.7
2011-10-24 08:37:29 51°16.539 2°55.743 99.9 3.7 82 12.7
2011-10-24 08:37:34 51°16.539 2°55.751 103 3.6 84 12.7
2011-10-24 08:37:39 51°16.539 2°55.759 106.1 3.5 88 12.8
2011-10-24 08:37:43 51°16.539 2°55.765 108.7 3.5 90 12.8
2011-10-24 08:37:49 51°16.538 2°55.774 112.9 3.4 93 12.8
2011-10-24 08:37:54 51°16.538 2°55.781 116.6 3.3 95 12.6
2011-10-24 08:37:59 51°16.537 2°55.789 120.3 3.2 98 12.7
2011-10-24 08:38:03 51°16.537 2°55.794 123.8 3.2 99 12.4
2011-10-24 08:38:09 51°16.536 2°55.802 127.8 3 102 12.5
2011-10-24 08:38:14 51°16.534 2°55.808 131.8 2.9 106 12.5
2011-10-24 08:38:19 51°16.534 2°55.814 135.1 2.8 108 12.4
2011-10-24 08:38:23 51°16.534 2°55.819 140.1 2.7 111 12.4
2011-10-24 08:38:29 51°16.532 2°55.826 143.6 2.6 115 12.4
2011-10-24 08:38:34 51°16.531 2°55.831 148.2 2.5 117 12.4
2011-10-24 08:38:39 51°16.529 2°55.835 150.5 2.4 120 12.4
2011-10-24 08:38:43 51°16.527 2°55.839 153.5 2.5 120 12.4
2011-10-24 08:38:48 51°16.525 2°55.844 155.4 2.4 125 12.4
2011-10-24 08:38:54 51°16.523 2°55.849 156.9 2.5 125 12.4
2011-10-24 08:38:59 51°16.521 2°55.853 158.3 2.4 130 12.4
2011-10-24 08:39:03 51°16.52 2°55.857 159.5 2.4 128 12.7
2011-10-24 08:39:09 51°16.517 2°55.861 160.3 2.4 131 12.6
2011-10-24 08:39:14 51°16.515 2°55.866 160.7 2.5 132 12.6
2011-10-24 08:39:19 51°16.513 2°55.869 161 2.4 133 12.6
2011-10-24 08:39:23 51°16.511 2°55.873 161.3 2.4 133 12.4
2011-10-24 08:39:29 51°16.508 2°55.877 161.5 2.4 133 12.4
2011-10-24 08:39:34 51°16.506 2°55.881 161.7 2.5 133 12.4
2011-10-24 08:39:39 51°16.503 2°55.885 161.6 2.5 134 12.4
2011-10-24 08:39:43 51°16.501 2°55.889 161.2 2.5 133 12.4
2011-10-24 08:39:49 51°16.498 2°55.893 160.9 2.6 133 12.4
2011-10-24 08:39:54 51°16.496 2°55.898 160.6 2.6 133 12.4